createdAt,value
2023-08-28T00:01:16.687Z,97.25
2023-08-28T00:03:44.788Z,97.08
2023-08-28T00:06:11.941Z,97.23
2023-08-28T00:08:39.134Z,97.00
2023-08-28T00:11:06.313Z,96.47
2023-08-28T00:13:33.445Z,96.16
2023-08-28T00:16:00.689Z,95.99
2023-08-28T00:18:28.016Z,95.85
2023-08-28T00:20:56.558Z,95.25
2023-08-28T00:23:23.660Z,95.00
2023-08-28T00:25:50.831Z,94.59
2023-08-28T00:28:17.927Z,94.20
2023-08-28T00:30:45.196Z,93.83
2023-08-28T00:33:12.456Z,94.05
2023-08-28T00:35:39.901Z,93.88
2023-08-28T00:38:07.090Z,94.04
2023-08-28T00:40:34.186Z,93.77
2023-08-28T00:43:01.722Z,93.90
2023-08-28T00:45:30.626Z,93.92
2023-08-28T00:47:58.338Z,93.96
2023-08-28T00:50:26.526Z,93.80
2023-08-28T00:52:53.731Z,93.80
2023-08-28T00:55:20.927Z,93.54
2023-08-28T00:57:48.176Z,93.11
2023-08-28T01:00:16.875Z,93.09
2023-08-28T01:02:44.536Z,93.18
2023-08-28T01:05:12.449Z,93.22
2023-08-28T01:07:59.663Z,93.12
2023-08-28T01:10:39.223Z,92.95
2023-08-28T01:13:20.410Z,92.92
2023-08-28T01:15:50.348Z,93.10
2023-08-28T01:18:18.663Z,93.32
2023-08-28T01:20:48.421Z,92.60
2023-08-28T01:23:44.797Z,92.22
2023-08-28T01:26:14.472Z,92.11
2023-08-28T01:28:41.767Z,92.51
2023-08-28T01:31:09.006Z,92.68
2023-08-28T01:33:37.369Z,92.99
2023-08-28T01:36:22.701Z,92.79
2023-08-28T01:39:05.830Z,92.75
2023-08-28T01:41:34.101Z,92.76
2023-08-28T01:44:03.487Z,92.64
2023-08-28T01:46:33.885Z,92.76
2023-08-28T01:49:01.298Z,92.36
2023-08-28T01:51:28.376Z,92.52
2023-08-28T01:53:55.702Z,92.12
2023-08-28T01:56:24.720Z,92.28
2023-08-28T01:58:55.252Z,92.40
2023-08-28T02:01:26.957Z,92.21
2023-08-28T02:03:55.227Z,92.96
2023-08-28T02:06:23.015Z,93.06
2023-08-28T02:08:50.221Z,93.23
2023-08-28T02:11:18.697Z,93.51
2023-08-28T02:13:46.030Z,93.41
2023-08-28T02:16:13.290Z,93.63
2023-08-28T02:18:40.750Z,93.67
2023-08-28T02:21:08.854Z,93.19
2023-08-28T02:23:36.285Z,92.87
2023-08-28T02:26:03.424Z,92.88
2023-08-28T02:28:30.554Z,93.12
2023-08-28T02:31:00.241Z,93.42
2023-08-28T02:33:28.707Z,93.86
2023-08-28T02:35:55.973Z,93.90
2023-08-28T02:38:23.498Z,94.10
2023-08-28T02:40:50.580Z,94.06
2023-08-28T02:43:17.762Z,93.91
2023-08-28T02:45:45.722Z,94.18
2023-08-28T02:48:12.925Z,94.22
2023-08-28T02:50:40.242Z,94.36
2023-08-28T02:53:07.549Z,94.80
2023-08-28T02:55:42.507Z,94.75
2023-08-28T02:58:11.785Z,94.22
2023-08-28T03:00:43.396Z,94.31
2023-08-28T03:03:11.498Z,94.37
2023-08-28T03:05:38.728Z,94.31
2023-08-28T03:08:06.204Z,94.62
2023-08-28T03:10:36.130Z,94.78
2023-08-28T03:13:04.135Z,94.82
2023-08-28T03:15:34.921Z,94.62
2023-08-28T03:18:02.657Z,94.58
2023-08-28T03:20:29.935Z,94.61
2023-08-28T03:22:57.644Z,94.42
2023-08-28T03:25:25.398Z,94.31
2023-08-28T03:27:53.021Z,93.77
2023-08-28T03:30:20.808Z,94.14
2023-08-28T03:32:47.967Z,94.47
2023-08-28T03:35:15.087Z,94.42
2023-08-28T03:37:42.152Z,94.55
2023-08-28T03:40:10.452Z,94.44
2023-08-28T03:42:37.752Z,94.35
2023-08-28T03:45:05.415Z,94.30
2023-08-28T03:47:32.700Z,94.30
2023-08-28T03:49:59.780Z,94.06
2023-08-28T03:52:28.249Z,94.30
2023-08-28T03:54:55.871Z,94.41
2023-08-28T03:57:23.024Z,94.12
2023-08-28T03:59:50.155Z,94.33
2023-08-28T04:02:17.281Z,94.10
2023-08-28T04:04:47.694Z,94.01
2023-08-28T04:07:26.721Z,93.82
2023-08-28T04:09:55.240Z,93.86
2023-08-28T04:12:22.384Z,93.80
2023-08-28T04:14:49.645Z,93.84
2023-08-28T04:17:17.708Z,93.56
2023-08-28T04:19:44.965Z,93.66
2023-08-28T04:22:12.167Z,93.88
2023-08-28T04:24:40.068Z,93.35
2023-08-28T04:27:07.151Z,93.34
2023-08-28T04:29:34.725Z,93.44
2023-08-28T04:32:01.814Z,93.11
2023-08-28T04:34:28.972Z,93.17
2023-08-28T04:36:55.993Z,93.12
2023-08-28T04:39:24.600Z,92.87
2023-08-28T04:41:53.133Z,92.97
2023-08-28T04:44:20.843Z,93.23
2023-08-28T04:46:50.142Z,93.25
2023-08-28T04:49:18.401Z,93.38
2023-08-28T04:51:45.635Z,93.33
2023-08-28T04:54:12.834Z,93.12
2023-08-28T04:56:40.034Z,93.17
2023-08-28T04:59:08.235Z,92.75
2023-08-28T05:01:36.641Z,92.76
2023-08-28T05:04:04.153Z,93.01
2023-08-28T05:06:31.329Z,93.37
2023-08-28T05:08:58.462Z,93.23
2023-08-28T05:11:25.756Z,93.49
2023-08-28T05:13:54.242Z,92.96
2023-08-28T05:16:21.411Z,93.15
2023-08-28T05:18:48.475Z,93.09
2023-08-28T05:21:17.281Z,93.34
2023-08-28T05:23:44.415Z,93.44
2023-08-28T05:26:11.621Z,93.49
2023-08-28T05:28:40.045Z,93.11
2023-08-28T05:31:07.352Z,93.64
2023-08-28T05:33:37.474Z,93.69
2023-08-28T05:36:05.021Z,93.65
2023-08-28T05:38:32.262Z,93.40
2023-08-28T05:40:59.472Z,93.88
2023-08-28T05:43:26.658Z,93.78
2023-08-28T05:45:53.883Z,93.93
2023-08-28T05:48:20.994Z,94.15
2023-08-28T05:50:51.682Z,93.82
2023-08-28T05:53:18.888Z,93.99
2023-08-28T05:55:49.126Z,93.95
2023-08-28T05:58:16.254Z,94.51
2023-08-28T06:00:43.957Z,94.09
2023-08-28T06:03:12.761Z,94.00
2023-08-28T06:05:40.025Z,93.70
2023-08-28T06:08:07.165Z,93.69
2023-08-28T06:10:35.807Z,93.82
2023-08-28T06:13:03.251Z,94.45
2023-08-28T06:15:31.625Z,94.26
2023-08-28T06:17:58.874Z,94.46
2023-08-28T06:20:26.087Z,94.48
2023-08-28T06:22:53.174Z,94.82
2023-08-28T06:25:20.536Z,94.98
2023-08-28T06:27:47.737Z,94.68
2023-08-28T06:30:15.360Z,94.52
2023-08-28T06:32:42.554Z,94.82
2023-08-28T06:35:10.298Z,94.63
2023-08-28T06:37:37.442Z,94.26
2023-08-28T06:40:05.370Z,94.48
2023-08-28T06:42:32.560Z,94.66
2023-08-28T06:45:01.316Z,94.52
2023-08-28T06:47:29.023Z,93.97
2023-08-28T06:49:56.223Z,93.95
2023-08-28T06:52:23.331Z,93.44
2023-08-28T06:54:51.946Z,93.55
2023-08-28T06:57:20.026Z,93.42
2023-08-28T06:59:47.278Z,94.08
2023-08-28T07:02:14.425Z,93.63
2023-08-28T07:04:41.721Z,93.76
2023-08-28T07:07:08.887Z,93.40
2023-08-28T07:09:36.051Z,92.99
2023-08-28T07:12:04.127Z,93.14
2023-08-28T07:14:31.501Z,92.64
2023-08-28T07:16:58.706Z,92.55
2023-08-28T07:19:25.932Z,92.57
2023-08-28T07:21:53.278Z,92.22
2023-08-28T07:24:20.401Z,91.95
2023-08-28T07:26:47.591Z,92.64
2023-08-28T07:29:14.684Z,92.99
2023-08-28T07:31:41.760Z,92.52
2023-08-28T07:34:08.829Z,92.08
2023-08-28T07:36:38.722Z,91.91
2023-08-28T07:39:06.042Z,91.91
2023-08-28T07:41:33.147Z,91.04
2023-08-28T07:44:00.419Z,90.44
2023-08-28T07:46:29.596Z,89.22
2023-08-28T07:48:56.774Z,88.49
2023-08-28T07:51:24.722Z,88.25
2023-08-28T07:53:51.937Z,88.81
2023-08-28T07:56:19.032Z,88.51
2023-08-28T07:58:46.885Z,88.56
2023-08-28T08:01:14.064Z,88.64
2023-08-28T08:03:41.188Z,88.65
2023-08-28T08:06:09.088Z,87.44
2023-08-28T08:08:36.419Z,87.16
2023-08-28T08:11:03.562Z,87.78
2023-08-28T08:13:30.647Z,87.61
2023-08-28T08:15:58.176Z,87.21
2023-08-28T08:18:25.400Z,85.91
2023-08-28T08:20:52.881Z,85.41
2023-08-28T08:23:19.969Z,85.81
2023-08-28T08:25:47.310Z,85.48
2023-08-28T08:28:16.774Z,84.38
2023-08-28T08:30:44.026Z,84.12
2023-08-28T08:33:11.956Z,83.82
2023-08-28T08:35:39.428Z,83.49
2023-08-28T08:38:06.958Z,84.24
2023-08-28T08:40:35.949Z,83.69
2023-08-28T08:43:03.531Z,83.57
2023-08-28T08:45:31.064Z,83.36
2023-08-28T08:48:02.551Z,82.99
2023-08-28T08:50:30.234Z,82.84
2023-08-28T08:53:05.371Z,83.04
2023-08-28T08:55:47.058Z,81.72
2023-08-28T08:58:16.971Z,81.10
2023-08-28T09:00:47.335Z,80.81
2023-08-28T09:03:15.929Z,80.83
2023-08-28T09:05:43.410Z,81.62
2023-08-28T09:08:11.738Z,81.80
2023-08-28T09:10:38.964Z,81.75
2023-08-28T09:13:06.359Z,81.34
2023-08-28T09:15:33.975Z,80.21
2023-08-28T09:18:05.764Z,80.16
2023-08-28T09:20:33.262Z,78.30
2023-08-28T09:23:00.462Z,78.64
2023-08-28T09:25:28.300Z,78.21
2023-08-28T09:27:56.707Z,77.49
2023-08-28T09:30:37.768Z,77.00
2023-08-28T09:33:09.932Z,77.41
2023-08-28T09:35:42.693Z,74.72
2023-08-28T09:38:10.682Z,74.76
2023-08-28T09:40:42.918Z,74.52
2023-08-28T09:43:18.060Z,74.93
2023-08-28T09:45:46.960Z,73.28
2023-08-28T09:48:14.736Z,71.73
2023-08-28T09:50:43.861Z,71.19
2023-08-28T09:53:12.975Z,72.12
2023-08-28T09:55:54.573Z,72.66
2023-08-28T09:58:27.148Z,73.74
2023-08-28T10:00:56.622Z,74.02
2023-08-28T10:03:26.168Z,74.87
2023-08-28T10:05:54.769Z,75.27
2023-08-28T10:08:26.967Z,74.89
2023-08-28T10:10:57.824Z,74.47
2023-08-28T10:13:25.852Z,73.05
2023-08-28T10:15:59.504Z,72.22
2023-08-28T10:18:46.106Z,72.73
2023-08-28T10:21:13.480Z,72.04
2023-08-28T10:23:42.769Z,72.41
2023-08-28T10:26:12.449Z,73.80
2023-08-28T10:28:41.242Z,73.68
2023-08-28T10:31:10.237Z,72.69
2023-08-28T10:33:38.153Z,72.12
2023-08-28T10:36:11.814Z,73.23
2023-08-28T10:38:56.018Z,73.71
2023-08-28T10:41:26.948Z,73.37
2023-08-28T10:43:54.819Z,72.81
2023-08-28T10:46:23.483Z,73.26
2023-08-28T10:48:58.030Z,73.11
2023-08-28T10:51:38.583Z,73.08
2023-08-28T10:54:06.496Z,72.07
2023-08-28T10:56:35.982Z,70.55
2023-08-28T10:59:29.382Z,68.84
2023-08-28T11:01:58.710Z,66.41
2023-08-28T11:04:37.619Z,63.47
2023-08-28T11:07:05.883Z,64.42
2023-08-28T11:09:35.373Z,64.99
2023-08-28T11:12:02.515Z,65.60
2023-08-28T11:17:19.375Z,66.73
2023-08-28T11:19:53.593Z,66.59
2023-08-28T11:22:33.282Z,66.81
2023-08-28T11:25:02.093Z,67.60
2023-08-28T11:27:46.835Z,67.62
2023-08-28T11:30:15.466Z,67.57
2023-08-28T11:32:45.731Z,67.79
2023-08-28T11:35:18.667Z,68.50
2023-08-28T11:37:57.488Z,69.07
2023-08-28T11:40:26.425Z,69.75
2023-08-28T11:43:05.252Z,69.78
2023-08-28T11:45:33.018Z,69.74
2023-08-28T11:48:02.328Z,68.92
2023-08-28T11:50:29.609Z,69.02
2023-08-28T11:52:56.879Z,69.64
2023-08-28T11:55:24.377Z,68.58
2023-08-28T11:57:52.805Z,68.40
2023-08-28T12:00:21.235Z,68.37
2023-08-28T12:02:49.997Z,68.17
2023-08-28T12:05:20.992Z,70.23
2023-08-28T12:07:48.668Z,69.92
2023-08-28T12:10:18.720Z,69.18
2023-08-28T12:12:46.024Z,69.64
2023-08-28T12:15:13.172Z,69.58
2023-08-28T12:17:40.886Z,69.24
2023-08-28T12:20:18.761Z,69.17
2023-08-28T12:22:46.856Z,69.69
2023-08-28T12:25:14.631Z,70.22
2023-08-28T12:27:41.780Z,70.64
2023-08-28T12:30:19.434Z,69.62
2023-08-28T12:32:52.863Z,70.55
2023-08-28T12:35:22.390Z,71.02
2023-08-28T12:37:53.477Z,70.25
2023-08-28T12:40:21.043Z,70.00
2023-08-28T12:42:48.434Z,69.72
2023-08-28T12:45:15.755Z,71.26
2023-08-28T12:47:43.151Z,70.50
2023-08-28T12:50:11.577Z,70.00
2023-08-28T12:52:39.449Z,70.36
2023-08-28T12:55:06.714Z,70.38
2023-08-28T12:57:34.049Z,70.39
2023-08-28T13:00:01.225Z,71.22
2023-08-28T13:02:28.521Z,70.90
2023-08-28T13:04:56.915Z,70.43
2023-08-28T13:07:24.022Z,70.96
2023-08-28T13:09:51.284Z,70.81
2023-08-28T13:12:20.342Z,70.13
2023-08-28T13:14:47.533Z,69.97
2023-08-28T13:17:15.687Z,70.07
2023-08-28T13:19:42.842Z,69.45
2023-08-28T13:22:09.976Z,70.06
2023-08-28T13:24:43.909Z,69.71
2023-08-28T13:27:12.044Z,70.36
2023-08-28T13:29:39.653Z,70.17
2023-08-28T13:32:07.081Z,69.66
2023-08-28T13:34:34.300Z,70.15
2023-08-28T13:37:01.799Z,70.45
2023-08-28T13:39:29.036Z,70.08
2023-08-28T13:41:56.233Z,69.28
2023-08-28T13:44:23.585Z,68.93
2023-08-28T13:46:50.775Z,68.28
2023-08-28T13:49:18.023Z,68.75
2023-08-28T13:51:45.259Z,67.85
2023-08-28T13:54:13.473Z,68.43
2023-08-28T13:56:40.585Z,68.16
2023-08-28T13:59:07.907Z,67.91
2023-08-28T14:01:35.209Z,68.03
2023-08-28T14:04:02.725Z,68.49
2023-08-28T14:06:30.483Z,67.70
2023-08-28T14:08:57.621Z,67.89
2023-08-28T14:11:24.772Z,67.71
2023-08-28T14:13:51.836Z,67.88
2023-08-28T14:16:19.081Z,68.03
2023-08-28T14:18:46.185Z,69.21
2023-08-28T14:21:13.321Z,68.48
2023-08-28T14:23:40.606Z,68.14
2023-08-28T14:26:08.187Z,68.23
2023-08-28T14:28:35.611Z,68.89
2023-08-28T14:31:02.834Z,68.55
2023-08-28T14:33:30.547Z,67.80
2023-08-28T14:35:57.772Z,67.87
2023-08-28T14:38:25.599Z,68.17
2023-08-28T14:40:53.281Z,68.06
2023-08-28T14:43:20.498Z,68.51
2023-08-28T14:45:47.733Z,68.92
2023-08-28T14:48:14.997Z,69.13
2023-08-28T14:50:42.457Z,68.32
2023-08-28T14:53:09.603Z,68.40
2023-08-28T14:55:36.855Z,68.23
2023-08-28T14:58:06.203Z,68.69
2023-08-28T15:00:36.670Z,69.48
2023-08-28T15:03:04.935Z,69.96
2023-08-28T15:05:33.575Z,70.41
2023-08-28T15:08:11.872Z,70.73
2023-08-28T15:10:44.399Z,70.53
2023-08-28T15:13:11.570Z,70.82
2023-08-28T15:15:45.287Z,70.81
2023-08-28T15:18:12.511Z,71.00
2023-08-28T15:20:39.825Z,71.00
2023-08-28T15:23:07.040Z,70.62
2023-08-28T15:25:34.330Z,70.76
2023-08-28T15:28:01.865Z,71.12
2023-08-28T15:30:31.619Z,71.18
2023-08-28T15:32:59.336Z,71.24
2023-08-28T15:35:27.000Z,71.54
2023-08-28T15:37:54.205Z,71.90
2023-08-28T15:40:22.490Z,72.74
2023-08-28T15:42:50.018Z,72.23
2023-08-28T15:45:17.198Z,71.90
2023-08-28T15:47:46.859Z,72.08
2023-08-28T15:50:14.908Z,72.39
2023-08-28T15:52:42.775Z,73.10
2023-08-28T15:55:10.434Z,72.76
2023-08-28T15:57:37.650Z,73.08
2023-08-28T16:00:05.310Z,73.49
2023-08-28T16:02:33.013Z,73.66
2023-08-28T16:05:00.173Z,73.74
2023-08-28T16:07:27.426Z,74.19
2023-08-28T16:09:54.521Z,74.27
2023-08-28T16:12:21.682Z,74.37
2023-08-28T16:14:48.789Z,74.81
2023-08-28T16:17:15.986Z,74.51
2023-08-28T16:19:43.114Z,74.57
2023-08-28T16:22:10.334Z,74.89
2023-08-28T16:24:37.426Z,74.56
2023-08-28T16:27:04.735Z,75.07
2023-08-28T16:29:32.219Z,75.28
2023-08-28T16:31:59.507Z,75.15
2023-08-28T16:34:26.858Z,75.02
2023-08-28T16:36:54.139Z,74.60
2023-08-28T16:39:21.292Z,75.07
2023-08-28T16:41:48.579Z,75.49
2023-08-28T16:44:16.124Z,75.46
2023-08-28T16:46:45.263Z,75.16
2023-08-28T16:49:12.615Z,75.26
2023-08-28T16:51:40.558Z,75.64
2023-08-28T16:54:07.732Z,75.93
2023-08-28T16:56:34.910Z,76.06
2023-08-28T16:59:02.044Z,76.70
2023-08-28T17:01:29.233Z,76.19
2023-08-28T17:03:56.463Z,75.90
2023-08-28T17:06:23.793Z,76.54
2023-08-28T17:08:50.894Z,76.32
2023-08-28T17:11:17.992Z,76.39
2023-08-28T17:13:45.196Z,76.82
2023-08-28T17:16:12.461Z,76.12
2023-08-28T17:18:40.507Z,76.24
2023-08-28T17:21:07.963Z,76.48
2023-08-28T17:23:35.044Z,77.19
2023-08-28T17:26:02.210Z,77.26
2023-08-28T17:28:29.412Z,77.05
2023-08-28T17:31:00.173Z,77.40
2023-08-28T17:33:27.725Z,77.47
2023-08-28T17:35:54.858Z,77.25
2023-08-28T17:38:22.211Z,77.41
2023-08-28T17:40:50.075Z,77.57
2023-08-28T17:43:18.146Z,78.24
2023-08-28T17:45:49.478Z,78.28
2023-08-28T17:48:16.702Z,78.00
2023-08-28T17:50:45.841Z,77.45
2023-08-28T17:53:13.341Z,77.14
2023-08-28T17:55:40.509Z,77.49
2023-08-28T17:58:07.772Z,77.68
2023-08-28T18:00:34.983Z,77.67
2023-08-28T18:03:08.088Z,77.93
2023-08-28T18:05:41.753Z,77.87
2023-08-28T18:08:08.993Z,77.71
2023-08-28T18:10:36.478Z,77.71
2023-08-28T18:13:04.597Z,77.27
2023-08-28T18:15:32.224Z,76.61
2023-08-28T18:17:59.501Z,76.66
2023-08-28T18:20:27.050Z,77.25
2023-08-28T18:22:54.180Z,77.48
2023-08-28T18:25:22.214Z,77.33
2023-08-28T18:28:05.313Z,77.52
2023-08-28T18:30:34.591Z,77.99
2023-08-28T18:33:01.739Z,78.16
2023-08-28T18:35:28.894Z,78.60
2023-08-28T18:37:58.696Z,78.89
2023-08-28T18:40:26.761Z,79.11
2023-08-28T18:42:55.921Z,79.71
2023-08-28T18:45:25.155Z,80.04
2023-08-28T18:47:54.037Z,80.35
2023-08-28T18:50:23.951Z,80.67
2023-08-28T18:52:51.226Z,80.81
2023-08-28T18:55:31.504Z,80.57
2023-08-28T18:57:59.821Z,80.73
2023-08-28T19:00:29.292Z,80.65
2023-08-28T19:02:57.472Z,80.89
2023-08-28T19:05:25.339Z,81.10
2023-08-28T19:07:52.849Z,80.93
2023-08-28T19:10:20.230Z,81.63
2023-08-28T19:12:47.983Z,81.52
2023-08-28T19:15:15.299Z,81.80
2023-08-28T19:17:43.061Z,82.29
2023-08-28T19:20:10.696Z,82.25
2023-08-28T19:22:38.037Z,82.61
2023-08-28T19:25:05.718Z,82.56
2023-08-28T19:27:32.803Z,82.47
2023-08-28T19:30:00.037Z,82.54
2023-08-28T19:32:37.896Z,82.16
2023-08-28T19:35:15.707Z,81.86
2023-08-28T19:37:44.364Z,81.57
2023-08-28T19:40:13.953Z,81.40
2023-08-28T19:42:43.355Z,81.33
2023-08-28T19:45:12.081Z,81.65
2023-08-28T19:47:39.628Z,81.49
2023-08-28T19:50:07.854Z,81.57
2023-08-28T19:52:35.317Z,81.61
2023-08-28T19:55:06.171Z,81.23
2023-08-28T19:57:34.080Z,80.83
2023-08-28T20:00:01.213Z,80.57
2023-08-28T20:02:28.527Z,79.38
2023-08-28T20:04:55.882Z,79.51
2023-08-28T20:07:22.978Z,79.29
2023-08-28T20:09:50.163Z,78.48
2023-08-28T20:12:17.316Z,77.70
2023-08-28T20:14:46.736Z,76.79
2023-08-28T20:17:14.764Z,76.82
2023-08-28T20:19:43.180Z,76.65
2023-08-28T20:22:11.212Z,76.81
2023-08-28T20:24:38.437Z,76.78
2023-08-28T20:27:07.905Z,76.46
2023-08-28T20:29:38.138Z,76.97
2023-08-28T20:32:06.109Z,77.32
2023-08-28T20:34:36.258Z,77.50
2023-08-28T20:37:04.045Z,77.75
2023-08-28T20:39:31.468Z,77.70
2023-08-28T20:42:00.141Z,77.83
2023-08-28T20:44:28.213Z,77.87
2023-08-28T20:46:55.340Z,78.37
2023-08-28T20:49:26.121Z,78.74
2023-08-28T20:51:54.552Z,78.71
2023-08-28T20:54:22.030Z,79.07
2023-08-28T20:56:49.342Z,78.90
2023-08-28T20:59:17.139Z,79.19
2023-08-28T21:01:44.285Z,79.20
2023-08-28T21:04:11.342Z,79.75
2023-08-28T21:06:38.637Z,80.42
2023-08-28T21:09:05.870Z,80.63
2023-08-28T21:11:34.782Z,80.53
2023-08-28T21:14:01.890Z,80.60
2023-08-28T21:16:29.189Z,80.96
2023-08-28T21:18:56.484Z,81.02
2023-08-28T21:21:23.737Z,81.40
2023-08-28T21:23:50.966Z,81.56
2023-08-28T21:26:18.308Z,81.95
2023-08-28T21:28:45.399Z,81.82
2023-08-28T21:31:12.709Z,82.25
2023-08-28T21:33:40.105Z,82.30
2023-08-28T21:36:07.646Z,82.35
2023-08-28T21:38:36.250Z,82.44
2023-08-28T21:41:09.115Z,83.02
2023-08-28T21:43:37.666Z,82.85
2023-08-28T21:46:06.294Z,82.82
2023-08-28T21:48:33.819Z,82.69
2023-08-28T21:51:19.810Z,82.95
2023-08-28T21:54:05.876Z,83.22
2023-08-28T21:56:51.647Z,83.52
2023-08-28T21:59:37.522Z,83.67
2023-08-28T22:02:23.625Z,84.18
2023-08-28T22:05:09.717Z,84.04
2023-08-28T22:07:39.556Z,84.58
2023-08-28T22:10:18.937Z,84.49
2023-08-28T22:13:02.205Z,85.01
2023-08-28T22:15:33.193Z,85.12
2023-08-28T22:18:05.817Z,85.01
2023-08-28T22:20:33.841Z,84.56
2023-08-28T22:23:01.024Z,85.01
2023-08-28T22:25:28.256Z,85.21
2023-08-28T22:27:55.363Z,85.22
2023-08-28T22:30:22.489Z,84.98
2023-08-28T22:32:51.549Z,85.38
2023-08-28T22:35:19.292Z,85.29
2023-08-28T22:37:46.505Z,85.42
2023-08-28T22:40:13.683Z,85.92
2023-08-28T22:42:40.732Z,85.59
2023-08-28T22:45:08.393Z,85.06
2023-08-28T22:47:36.593Z,85.40
2023-08-28T22:50:04.573Z,86.08
2023-08-28T22:52:31.591Z,86.00
2023-08-28T22:54:58.759Z,85.94
2023-08-28T22:57:25.929Z,86.10
2023-08-28T22:59:53.030Z,86.22
2023-08-28T23:02:20.124Z,85.70
2023-08-28T23:04:47.350Z,86.01
2023-08-28T23:07:14.605Z,86.09
2023-08-28T23:09:41.783Z,85.84
2023-08-28T23:12:09.010Z,86.42
2023-08-28T23:14:36.229Z,86.04
2023-08-28T23:17:03.857Z,86.28
2023-08-28T23:19:31.081Z,86.91
2023-08-28T23:21:58.152Z,87.03
2023-08-28T23:24:26.366Z,87.09
2023-08-28T23:26:55.905Z,88.10
2023-08-28T23:29:23.158Z,87.96
2023-08-28T23:31:50.558Z,87.66
2023-08-28T23:34:17.870Z,87.73
2023-08-28T23:36:45.648Z,87.50
2023-08-28T23:39:13.050Z,88.34
2023-08-28T23:41:40.289Z,87.98
2023-08-28T23:44:07.479Z,87.48
2023-08-28T23:46:34.703Z,87.66
2023-08-28T23:49:01.860Z,87.88
2023-08-28T23:51:29.201Z,88.30
2023-08-28T23:53:56.436Z,88.35
2023-08-28T23:56:23.520Z,88.42
2023-08-28T23:58:50.660Z,88.98
